Al Cenac — WDD5445 — position and weather

sailwx.info

Track history (hours):
 
Tides and Currents Weather Stations Pressure Air Temp Water Temp Dewpoint Dewpoint Depression Visibility Wind Speed Wind Dir Waves Ship Positions

Al Cenac

Owner: Caillou Island Towing Co, Inc., Houma, LA. More information available from US FCC via Universal Licensing System and Coast Guard Vessel Documentation Center.

Last reported at 2015-Feb-01 09:07 UTC. Time now 2015-Feb-01 14:46 UTC.
Position N 40°38' W 074°08'.

; draft 10 m.

MMSI: 367158530.

Date/timePositionNaut miles runAvg speedWind from/ knotsBaromVisibWave heightAir tempDewpointWater temp
2015-Feb-01 09:07N 40°38' W 074°08'0 0.0
2015-Feb-01 07:24N 40°38' W 074°08'9 0.6
2015-Jan-31 16:11N 40°31' W 074°15'8 2.0
2015-Jan-31 12:17N 40°38' W 074°12'3 0.5
2015-Jan-31 06:28N 40°38' W 074°08'0 0.0
2015-Jan-29 20:33N 40°39' W 074°08'0 0.0
2015-Jan-29 10:30N 40°38' W 074°08'0 0.0
2015-Jan-29 00:18N 40°38' W 074°08'0 0.0
2015-Jan-28 18:27N 40°39' W 074°08'3 1.1
2015-Jan-28 16:12N 40°39' W 074°11'3 0.9
2015-Jan-28 13:16N 40°38' W 074°08'0 0.0
2015-Jan-28 08:10N 40°39' W 074°08'3 1.8
2015-Jan-28 06:16N 40°38' W 074°12'4 0.9
2015-Jan-28 01:33N 40°39' W 074°07'0 0.0
2015-Jan-28 00:31N 40°39' W 074°07'1 0.3
2015-Jan-27 21:11N 40°39' W 074°08'3 0.5
2015-Jan-27 15:22N 40°38' W 074°12'3 1.4
2015-Jan-27 13:19N 40°38' W 074°08'0 0.0
2015-Jan-27 11:26N 40°38' W 074°08'0 0.0
2015-Jan-27 10:09N 40°38' W 074°08'0 0.0
2015-Jan-27 09:33N 40°38' W 074°08'0 0.0
2015-Jan-27 07:23N 40°38' W 074°08'0 0.0
2015-Jan-26 19:14N 40°38' W 074°08'0 0.0
2015-Jan-26 16:17N 40°38' W 074°08'4 1.0
2015-Jan-26 12:10N 40°36' W 074°12'4 0.3
2015-Jan-26 01:11N 40°33' W 074°15'6 2.1
2015-Jan-25 22:14N 40°39' W 074°11'2 0.6
2015-Jan-25 18:23N 40°38' W 074°08'1 0.2
2015-Jan-25 15:29N 40°39' W 074°07'5 1.5
2015-Jan-25 12:20N 40°36' W 074°12'0 0.0
2015-Jan-25 05:23N 40°36' W 074°12'2 0.8
2015-Jan-25 03:09N 40°38' W 074°12'3 4.4
2015-Jan-25 02:27N 40°38' W 074°08'0 0.0
2015-Jan-25 01:10N 40°38' W 074°08'0 0.0
2015-Jan-25 00:29N 40°38' W 074°08'0 0.0
2015-Jan-24 21:13N 40°38' W 074°08'0 0.0
2015-Jan-24 18:21N 40°38' W 074°08'1 1.7
2015-Jan-24 17:31N 40°39' W 074°10'0 0.3
2015-Jan-24 16:10N 40°39' W 074°10'1 0.9
2015-Jan-24 14:33N 40°38' W 074°08'3 1.1
2015-Jan-24 12:12N 40°38' W 074°12'1 0.4
2015-Jan-24 08:33N 40°39' W 074°10'0 0.1
2015-Jan-24 00:24N 40°39' W 074°10'0 0.1
2015-Jan-23 23:17N 40°39' W 074°10'4 5.5
2015-Jan-23 22:28N 40°40' W 074°04'2 1.7
2015-Jan-23 21:33N 40°39' W 074°06'2 1.6
2015-Jan-23 20:33N 40°39' W 074°08'1 1.2
2015-Jan-23 19:33N 40°39' W 074°07'5 5.0
2015-Jan-23 18:29N 40°40' W 073°60'0 0.0
2015-Jan-23 17:29N 40°40' W 073°60'0 0.0
2015-Jan-23 16:30N 40°40' W 073°60'0 0.0
2015-Jan-23 15:31N 40°40' W 073°60'0 0.0
2015-Jan-23 14:31N 40°40' W 073°60'0 0.1
2015-Jan-23 13:32N 40°40' W 073°60'5 4.7
2015-Jan-23 12:33N 40°39' W 074°06'5 0.5
2015-Jan-23 02:31N 40°38' W 074°12'6 5.7
2015-Jan-23 01:31N 40°33' W 074°15'7 0.8
2015-Jan-22 17:30N 40°39' W 074°10'2 1.2
2015-Jan-22 16:14N 40°38' W 074°08'1 0.9
2015-Jan-22 15:30N 40°39' W 074°07'2 1.8
2015-Jan-22 14:33N 40°39' W 074°05'0 0.1
2015-Jan-22 13:33N 40°39' W 074°05'2 2.1
2015-Jan-22 12:30N 40°38' W 074°08'0 0.0
2015-Jan-22 11:31N 40°38' W 074°08'0 0.0
2015-Jan-22 10:31N 40°38' W 074°08'  
Track history (hours):
 
Tides and Currents Weather Stations Pressure Air Temp Water Temp Dewpoint Dewpoint Depression Visibility Wind Speed Wind Dir Waves Ship Positions

Al Cenac

Owner: Caillou Island Towing Co, Inc., Houma, LA. More information available from US FCC via Universal Licensing System and Coast Guard Vessel Documentation Center.

Last reported at 2015-Feb-01 09:07 UTC. Time now 2015-Feb-01 14:46 UTC.
Position N 40°38' W 074°08'.

; draft 10 m.

MMSI: 367158530.

Date/timePositionNaut miles runAvg speedWind from/ knotsBaromVisibWave heightAir tempDewpointWater temp
2015-Feb-01 09:07N 40°38' W 074°08'0 0.0
2015-Feb-01 07:24N 40°38' W 074°08'9 0.6
2015-Jan-31 16:11N 40°31' W 074°15'8 2.0
2015-Jan-31 12:17N 40°38' W 074°12'3 0.5
2015-Jan-31 06:28N 40°38' W 074°08'0 0.0
2015-Jan-29 20:33N 40°39' W 074°08'0 0.0
2015-Jan-29 10:30N 40°38' W 074°08'0 0.0
2015-Jan-29 00:18N 40°38' W 074°08'0 0.0
2015-Jan-28 18:27N 40°39' W 074°08'3 1.1
2015-Jan-28 16:12N 40°39' W 074°11'3 0.9
2015-Jan-28 13:16N 40°38' W 074°08'0 0.0
2015-Jan-28 08:10N 40°39' W 074°08'3 1.8
2015-Jan-28 06:16N 40°38' W 074°12'4 0.9
2015-Jan-28 01:33N 40°39' W 074°07'0 0.0
2015-Jan-28 00:31N 40°39' W 074°07'1 0.3
2015-Jan-27 21:11N 40°39' W 074°08'3 0.5
2015-Jan-27 15:22N 40°38' W 074°12'3 1.4
2015-Jan-27 13:19N 40°38' W 074°08'0 0.0
2015-Jan-27 11:26N 40°38' W 074°08'0 0.0
2015-Jan-27 10:09N 40°38' W 074°08'0 0.0
2015-Jan-27 09:33N 40°38' W 074°08'0 0.0
2015-Jan-27 07:23N 40°38' W 074°08'0 0.0
2015-Jan-26 19:14N 40°38' W 074°08'0 0.0
2015-Jan-26 16:17N 40°38' W 074°08'4 1.0
2015-Jan-26 12:10N 40°36' W 074°12'4 0.3
2015-Jan-26 01:11N 40°33' W 074°15'6 2.1
2015-Jan-25 22:14N 40°39' W 074°11'2 0.6
2015-Jan-25 18:23N 40°38' W 074°08'1 0.2
2015-Jan-25 15:29N 40°39' W 074°07'5 1.5
2015-Jan-25 12:20N 40°36' W 074°12'0 0.0
2015-Jan-25 05:23N 40°36' W 074°12'2 0.8
2015-Jan-25 03:09N 40°38' W 074°12'3 4.4
2015-Jan-25 02:27N 40°38' W 074°08'0 0.0
2015-Jan-25 01:10N 40°38' W 074°08'0 0.0
2015-Jan-25 00:29N 40°38' W 074°08'0 0.0
2015-Jan-24 21:13N 40°38' W 074°08'0 0.0
2015-Jan-24 18:21N 40°38' W 074°08'1 1.7
2015-Jan-24 17:31N 40°39' W 074°10'0 0.3
2015-Jan-24 16:10N 40°39' W 074°10'1 0.9
2015-Jan-24 14:33N 40°38' W 074°08'3 1.1
2015-Jan-24 12:12N 40°38' W 074°12'1 0.4
2015-Jan-24 08:33N 40°39' W 074°10'0 0.1
2015-Jan-24 00:24N 40°39' W 074°10'0 0.1
2015-Jan-23 23:17N 40°39' W 074°10'4 5.5
2015-Jan-23 22:28N 40°40' W 074°04'2 1.7
2015-Jan-23 21:33N 40°39' W 074°06'2 1.6
2015-Jan-23 20:33N 40°39' W 074°08'1 1.2
2015-Jan-23 19:33N 40°39' W 074°07'5 5.0
2015-Jan-23 18:29N 40°40' W 073°60'0 0.0
2015-Jan-23 17:29N 40°40' W 073°60'0 0.0
2015-Jan-23 16:30N 40°40' W 073°60'0 0.0
2015-Jan-23 15:31N 40°40' W 073°60'0 0.0
2015-Jan-23 14:31N 40°40' W 073°60'0 0.1
2015-Jan-23 13:32N 40°40' W 073°60'5 4.7
2015-Jan-23 12:33N 40°39' W 074°06'5 0.5
2015-Jan-23 02:31N 40°38' W 074°12'6 5.7
2015-Jan-23 01:31N 40°33' W 074°15'7 0.8
2015-Jan-22 17:30N 40°39' W 074°10'2 1.2
2015-Jan-22 16:14N 40°38' W 074°08'1 0.9
2015-Jan-22 15:30N 40°39' W 074°07'2 1.8
2015-Jan-22 14:33N 40°39' W 074°05'0 0.1
2015-Jan-22 13:33N 40°39' W 074°05'2 2.1
2015-Jan-22 12:30N 40°38' W 074°08'0 0.0
2015-Jan-22 11:31N 40°38' W 074°08'0 0.0
2015-Jan-22 10:31N 40°38' W 074°08'  

Dump ship's entire track history